Time;durP1;ratioP1;P1;durP2;ratioP2;P2;SDS_P1;SDS_P2;PMS_P1;PMS_P2;Temp;Humidity;BMP_temperature;BMP_pressure;BME280_temperature;BME280_humidity;BME280_pressure;Samples;Min_cycle;Max_cycle;Signal;HPM_P1;HPM_P2
2021/05/15 00:00:42;;;;;;;3.50;2.70;;;13.00;99.90;;;;;;2064311;28;20141;-68
2021/05/15 00:01:43;;;;;;;2.80;2.60;;;13.00;99.90;;;;;;2064077;28;20559;-68
2021/05/15 00:02:43;;;;;;;3.72;2.90;;;13.00;99.90;;;;;;2064059;28;20519;-68
2021/05/15 00:03:44;;;;;;;4.05;2.90;;;13.00;99.90;;;;;;2056385;28;20035;-68
2021/05/15 00:04:44;;;;;;;3.58;2.88;;;13.00;99.90;;;;;;2056612;28;20041;-68
2021/05/15 00:05:45;;;;;;;4.60;2.70;;;13.00;99.90;;;;;;2061888;28;20022;-68
2021/05/15 00:06:46;;;;;;;3.33;2.90;;;13.00;99.90;;;;;;2064257;28;20035;-68
2021/05/15 00:07:46;;;;;;;4.65;2.67;;;13.00;99.90;;;;;;2064003;28;20069;-68
2021/05/15 00:08:47;;;;;;;2.80;2.50;;;12.90;99.90;;;;;;2064367;28;20030;-68
2021/05/15 00:09:47;;;;;;;2.22;2.05;;;12.90;99.90;;;;;;2063817;28;20651;-68
2021/05/15 00:10:48;;;;;;;2.92;2.65;;;12.90;99.90;;;;;;2064391;28;20441;-68
2021/05/15 00:11:49;;;;;;;6.22;2.47;;;12.90;99.90;;;;;;2056830;28;20760;-68
2021/05/15 00:12:50;;;;;;;3.00;2.70;;;12.90;99.90;;;;;;2058711;28;20084;-68
2021/05/15 00:13:50;;;;;;;3.72;2.90;;;12.90;99.90;;;;;;2063996;28;20022;-68
2021/05/15 00:14:51;;;;;;;3.15;2.85;;;12.90;99.90;;;;;;2064047;28;20023;-68
2021/05/15 00:15:52;;;;;;;2.90;2.70;;;12.90;99.90;;;;;;2064169;28;20560;-68
2021/05/15 00:16:53;;;;;;;3.97;3.20;;;12.90;99.90;;;;;;2064275;28;20026;-68
2021/05/15 00:17:54;;;;;;;3.33;2.80;;;12.80;99.90;;;;;;2064100;28;20026;-68
2021/05/15 00:18:55;;;;;;;3.05;2.85;;;12.90;99.90;;;;;;2071320;28;20022;-68
2021/05/15 00:19:55;;;;;;;3.67;2.63;;;12.90;99.90;;;;;;2079669;28;20025;-68
2021/05/15 00:20:56;;;;;;;3.50;2.70;;;12.90;99.90;;;;;;2063582;28;20038;-68
2021/05/15 00:21:56;;;;;;;2.70;2.42;;;12.90;99.90;;;;;;2064499;28;20385;-68
2021/05/15 00:22:57;;;;;;;2.65;2.45;;;12.90;99.90;;;;;;2063514;28;20031;-68
2021/05/15 00:23:58;;;;;;;3.00;2.55;;;12.80;99.90;;;;;;2064343;28;20026;-68
2021/05/15 00:24:58;;;;;;;2.90;2.70;;;12.80;99.90;;;;;;2071331;28;20449;-68
2021/05/15 00:26:00;;;;;;;2.30;2.10;;;12.80;99.90;;;;;;2063614;28;20038;-68
2021/05/15 00:27:00;;;;;;;4.05;2.78;;;12.80;99.90;;;;;;2063648;28;20586;-68
2021/05/15 00:28:01;;;;;;;2.88;2.58;;;12.80;99.90;;;;;;2064017;28;20122;-68
2021/05/15 00:29:01;;;;;;;2.60;2.40;;;12.80;99.90;;;;;;2063998;28;20036;-68
2021/05/15 00:30:05;;;;;;;3.97;2.70;;;12.80;99.90;;;;;;2064491;28;20056;-68
2021/05/15 00:31:05;;;;;;;3.17;2.40;;;12.80;99.90;;;;;;2061370;28;20458;-68
2021/05/15 00:32:06;;;;;;;3.08;2.78;;;12.70;99.90;;;;;;2063490;28;20053;-68
2021/05/15 00:33:07;;;;;;;3.15;2.20;;;12.70;99.90;;;;;;2063657;28;20029;-68
2021/05/15 00:34:07;;;;;;;4.13;2.28;;;12.70;99.90;;;;;;2071576;28;20076;-68
2021/05/15 00:35:09;;;;;;;3.25;2.80;;;12.70;99.90;;;;;;2071453;28;20032;-68
2021/05/15 00:36:09;;;;;;;3.53;2.00;;;12.70;99.90;;;;;;2058611;28;20098;-68
2021/05/15 00:37:10;;;;;;;3.08;2.83;;;12.70;99.90;;;;;;2058739;28;20073;-68
2021/05/15 00:38:11;;;;;;;2.55;2.35;;;12.70;99.90;;;;;;2063704;28;20382;-68
2021/05/15 00:39:12;;;;;;;2.60;2.42;;;12.60;99.90;;;;;;2063787;28;20458;-68
2021/05/15 00:40:13;;;;;;;2.50;2.30;;;12.60;99.90;;;;;;2057286;28;20027;-68
2021/05/15 00:41:15;;;;;;;2.35;2.15;;;12.60;99.90;;;;;;2064071;28;20034;-68
2021/05/15 00:42:15;;;;;;;2.78;2.40;;;12.60;99.90;;;;;;2063452;28;20154;-68
2021/05/15 00:43:18;;;;;;;3.05;2.78;;;12.60;99.90;;;;;;2064040;28;20041;-68
2021/05/15 00:44:31;;;;;;;2.63;1.85;;;12.60;99.90;;;;;;2063919;28;20027;-68
2021/05/15 00:45:31;;;;;;;2.63;2.42;;;12.50;99.90;;;;;;2064190;28;20029;-68
2021/05/15 00:46:32;;;;;;;3.03;2.70;;;12.50;99.90;;;;;;2064479;28;20207;-68
2021/05/15 00:47:33;;;;;;;3.80;2.55;;;12.50;99.90;;;;;;2063897;28;20434;-68
2021/05/15 00:48:34;;;;;;;3.13;2.65;;;12.50;99.90;;;;;;2061914;28;20152;-68
2021/05/15 00:49:34;;;;;;;2.80;2.42;;;12.50;99.90;;;;;;2062037;28;20038;-68
2021/05/15 00:50:35;;;;;;;2.58;2.25;;;12.40;99.90;;;;;;2062437;28;20034;-68
2021/05/15 00:51:35;;;;;;;2.72;2.38;;;12.40;99.90;;;;;;2064194;28;20061;-68
2021/05/15 00:52:37;;;;;;;3.17;2.90;;;12.40;99.90;;;;;;2063490;28;20027;-68
2021/05/15 00:53:38;;;;;;;2.55;2.35;;;12.40;99.90;;;;;;2063957;28;20029;-67
2021/05/15 00:54:40;;;;;;;2.70;2.50;;;12.40;99.90;;;;;;2063614;28;20092;-67
2021/05/15 00:55:41;;;;;;;2.88;2.63;;;12.40;99.90;;;;;;2063810;28;20023;-67
2021/05/15 00:56:42;;;;;;;2.83;2.55;;;12.30;99.90;;;;;;2064118;28;20030;-68
2021/05/15 00:57:42;;;;;;;2.95;2.60;;;12.30;99.90;;;;;;2064205;28;20054;-68
2021/05/15 00:58:46;;;;;;;3.03;2.83;;;12.30;99.90;;;;;;2063446;28;20852;-68
2021/05/15 00:59:46;;;;;;;3.05;2.78;;;12.30;99.90;;;;;;2063736;28;20022;-68
2021/05/15 01:00:47;;;;;;;2.42;2.13;;;12.30;99.90;;;;;;2063931;28;20022;-67
2021/05/15 01:01:48;;;;;;;3.30;2.38;;;12.30;99.90;;;;;;2063309;28;20033;-68
2021/05/15 01:02:48;;;;;;;2.60;2.40;;;12.20;99.90;;;;;;2062947;28;20061;-68
2021/05/15 01:03:49;;;;;;;3.88;2.88;;;12.20;99.90;;;;;;2063895;28;20097;-68
2021/05/15 01:04:50;;;;;;;3.28;2.40;;;12.20;99.90;;;;;;2063946;28;20033;-68
2021/05/15 01:05:51;;;;;;;3.97;2.72;;;12.20;99.90;;;;;;2057133;28;20030;-68
2021/05/15 01:06:52;;;;;;;2.35;2.10;;;12.10;99.90;;;;;;2063438;28;20093;-67
2021/05/15 01:07:52;;;;;;;3.65;3.13;;;12.10;99.90;;;;;;2063492;28;20030;-68
2021/05/15 01:08:53;;;;;;;2.53;2.33;;;12.10;99.90;;;;;;2064000;28;20034;-68
2021/05/15 01:09:54;;;;;;;4.18;2.85;;;12.10;99.90;;;;;;2063819;28;20034;-68
2021/05/15 01:10:54;;;;;;;3.30;2.70;;;12.10;99.90;;;;;;2063750;28;20389;-67
2021/05/15 01:11:55;;;;;;;2.35;2.15;;;12.10;99.90;;;;;;2063884;28;20028;-68
2021/05/15 01:12:57;;;;;;;2.63;2.40;;;12.00;99.90;;;;;;2063317;28;20084;-68
2021/05/15 01:14:00;;;;;;;2.63;2.40;;;12.00;99.90;;;;;;2063859;28;20038;-68
2021/05/15 01:15:00;;;;;;;2.53;2.33;;;12.00;99.90;;;;;;2063053;28;20442;-67
2021/05/15 01:16:01;;;;;;;2.65;2.40;;;12.00;99.90;;;;;;2063408;28;20022;-68
2021/05/15 01:17:02;;;;;;;2.33;2.10;;;12.00;99.90;;;;;;2063531;28;20029;-68
2021/05/15 01:18:02;;;;;;;3.42;2.45;;;12.00;99.90;;;;;;2063671;28;20088;-68
2021/05/15 01:19:04;;;;;;;2.28;2.10;;;12.00;99.90;;;;;;2063846;28;20081;-67
2021/05/15 01:20:20;;;;;;;2.63;2.33;;;12.00;99.90;;;;;;2064062;28;20466;-68
2021/05/15 01:21:21;;;;;;;2.42;2.22;;;12.00;99.90;;;;;;2059659;28;20057;-68
2021/05/15 01:22:21;;;;;;;2.60;2.40;;;11.90;99.90;;;;;;2059906;28;20038;-67
2021/05/15 01:23:22;;;;;;;2.50;2.30;;;11.90;99.90;;;;;;2057864;28;20394;-67
2021/05/15 01:24:22;;;;;;;2.30;2.10;;;11.90;99.90;;;;;;2060253;28;20031;-68
2021/05/15 01:25:24;;;;;;;2.50;2.30;;;11.90;99.90;;;;;;2063531;28;20035;-68
2021/05/15 01:26:27;;;;;;;3.20;2.08;;;11.90;99.90;;;;;;2063538;28;20056;-68
2021/05/15 01:27:27;;;;;;;2.65;2.40;;;11.90;99.90;;;;;;2063458;28;20073;-68
2021/05/15 01:28:29;;;;;;;2.28;2.08;;;11.90;99.90;;;;;;2063773;28;20045;-68
2021/05/15 01:29:30;;;;;;;2.42;2.22;;;11.90;99.90;;;;;;2058755;28;20027;-68
2021/05/15 01:30:30;;;;;;;2.63;2.40;;;11.80;99.90;;;;;;2056677;28;20054;-67
2021/05/15 01:31:32;;;;;;;2.70;2.50;;;11.80;99.90;;;;;;2063476;28;20070;-68
2021/05/15 01:32:32;;;;;;;3.08;2.40;;;11.80;99.90;;;;;;2062976;28;20835;-68
2021/05/15 01:33:33;;;;;;;1.92;1.80;;;11.80;99.90;;;;;;2063605;28;20453;-68
2021/05/15 01:34:34;;;;;;;2.58;2.10;;;11.80;99.90;;;;;;2063895;28;20087;-68
2021/05/15 01:35:34;;;;;;;2.72;2.05;;;11.80;99.90;;;;;;2063720;28;20041;-68
2021/05/15 01:36:40;;;;;;;3.03;2.50;;;11.80;99.90;;;;;;2063116;28;20050;-68
2021/05/15 01:37:41;;;;;;;2.13;1.92;;;11.80;99.90;;;;;;2068874;28;20465;-68
2021/05/15 01:38:42;;;;;;;2.45;2.25;;;11.80;99.90;;;;;;2064993;28;20387;-68
2021/05/15 01:39:42;;;;;;;1.67;1.58;;;11.80;99.90;;;;;;2063428;28;20027;-68
2021/05/15 01:40:43;;;;;;;3.47;2.40;;;11.70;99.90;;;;;;2063724;28;20518;-68
2021/05/15 01:41:44;;;;;;;4.38;2.85;;;11.70;99.90;;;;;;2063345;28;20096;-68
2021/05/15 01:42:44;;;;;;;2.85;2.65;;;11.70;99.90;;;;;;2063294;28;20061;-68
2021/05/15 01:43:46;;;;;;;2.13;2.03;;;11.70;99.90;;;;;;2063511;28;20057;-68
2021/05/15 01:44:46;;;;;;;3.80;2.88;;;11.70;99.90;;;;;;2063619;28;20072;-68
2021/05/15 01:45:47;;;;;;;3.05;2.75;;;11.60;99.90;;;;;;2063462;28;20050;-68
2021/05/15 01:46:48;;;;;;;2.42;2.13;;;11.70;99.90;;;;;;2063922;28;20088;-68
2021/05/15 01:47:48;;;;;;;2.92;2.65;;;11.60;99.90;;;;;;2063196;28;20033;-68
2021/05/15 01:48:49;;;;;;;3.67;3.03;;;11.60;99.90;;;;;;2063311;28;20845;-68
2021/05/15 01:49:49;;;;;;;2.78;2.58;;;11.60;99.90;;;;;;2062211;28;20477;-67
2021/05/15 01:51:02;;;;;;;2.95;2.70;;;11.60;99.90;;;;;;2063686;28;20146;-68
2021/05/15 01:52:03;;;;;;;3.35;3.05;;;11.60;99.90;;;;;;2063266;28;20109;-68
2021/05/15 01:53:04;;;;;;;2.90;2.67;;;11.50;99.90;;;;;;2063100;28;20026;-68
2021/05/15 01:54:05;;;;;;;3.70;3.17;;;11.50;99.90;;;;;;2063481;28;20034;-68
2021/05/15 01:55:19;;;;;;;5.15;3.15;;;11.50;99.90;;;;;;2062567;28;20022;-68
2021/05/15 01:56:28;;;;;;;4.15;3.10;;;11.50;99.90;;;;;;2063447;28;20069;-68
2021/05/15 01:57:28;;;;;;;3.13;2.85;;;11.50;99.90;;;;;;2063353;28;20069;-68
2021/05/15 01:58:29;;;;;;;3.40;2.10;;;11.40;99.90;;;;;;2063320;28;20054;-68
2021/05/15 01:59:30;;;;;;;3.05;2.85;;;11.40;99.90;;;;;;2063810;28;20052;-68
2021/05/15 02:00:30;;;;;;;3.08;2.20;;;11.40;99.90;;;;;;2063336;28;20641;-68
2021/05/15 02:01:31;;;;;;;2.65;2.45;;;11.40;99.90;;;;;;2064595;28;20049;-68
2021/05/15 02:02:31;;;;;;;3.17;2.95;;;11.40;99.90;;;;;;2064091;28;20027;-68
2021/05/15 02:03:33;;;;;;;2.58;2.38;;;11.40;99.90;;;;;;2064025;28;20038;-68
2021/05/15 02:04:34;;;;;;;3.17;2.88;;;11.30;99.90;;;;;;2064541;28;20042;-68
2021/05/15 02:05:34;;;;;;;2.60;2.40;;;11.30;99.90;;;;;;2064545;28;20050;-68
2021/05/15 02:06:35;;;;;;;2.95;2.75;;;11.30;99.90;;;;;;2064538;28;20045;-68
2021/05/15 02:07:36;;;;;;;2.97;2.72;;;11.30;99.90;;;;;;2065185;28;20084;-68
2021/05/15 02:08:37;;;;;;;3.67;3.25;;;11.30;99.90;;;;;;2064599;28;20725;-68
2021/05/15 02:09:37;;;;;;;3.28;2.97;;;11.30;99.90;;;;;;2064819;28;20030;-68
2021/05/15 02:10:38;;;;;;;3.72;2.88;;;11.30;99.90;;;;;;2064596;28;20473;-68
2021/05/15 02:11:39;;;;;;;3.13;2.92;;;11.20;99.90;;;;;;2064833;28;20022;-68
2021/05/15 02:12:39;;;;;;;3.35;3.10;;;11.20;99.90;;;;;;2063941;28;20363;-68
2021/05/15 02:13:40;;;;;;;4.15;3.13;;;11.20;99.90;;;;;;2064668;28;20033;-68
2021/05/15 02:14:40;;;;;;;2.33;2.13;;;11.20;99.90;;;;;;2064493;28;20027;-68
2021/05/15 02:15:41;;;;;;;3.00;2.70;;;11.20;99.90;;;;;;2064786;28;20041;-68
2021/05/15 02:16:42;;;;;;;3.38;3.10;;;11.10;99.90;;;;;;2064333;28;20029;-68
2021/05/15 02:17:42;;;;;;;4.07;3.65;;;11.20;99.90;;;;;;2064132;28;20046;-68
2021/05/15 02:18:43;;;;;;;4.28;3.53;;;11.10;99.90;;;;;;2064740;28;20076;-68
2021/05/15 02:19:43;;;;;;;4.00;3.63;;;11.10;99.90;;;;;;2064508;28;20030;-68
2021/05/15 02:20:44;;;;;;;3.88;2.88;;;11.10;99.90;;;;;;2064591;28;20030;-68
2021/05/15 02:21:45;;;;;;;4.32;3.20;;;11.10;99.90;;;;;;2064635;28;20108;-68
2021/05/15 02:22:45;;;;;;;3.25;2.80;;;11.10;99.90;;;;;;2064198;28;20045;-68
2021/05/15 02:23:46;;;;;;;3.83;3.53;;;11.10;99.90;;;;;;2064574;28;20113;-68
2021/05/15 02:24:46;;;;;;;4.20;3.55;;;11.10;99.90;;;;;;2064105;28;20367;-68
2021/05/15 02:25:48;;;;;;;3.58;3.28;;;11.00;99.90;;;;;;2064490;28;20033;-67
2021/05/15 02:26:48;;;;;;;4.20;2.92;;;11.00;99.90;;;;;;2064941;28;20030;-68
2021/05/15 02:27:49;;;;;;;3.55;3.30;;;11.00;99.90;;;;;;2063782;28;20031;-68
2021/05/15 02:28:50;;;;;;;4.00;3.63;;;11.00;99.90;;;;;;2065189;28;20502;-68
2021/05/15 02:29:50;;;;;;;3.03;2.65;;;11.00;99.90;;;;;;2064580;28;20029;-68
2021/05/15 02:30:51;;;;;;;3.28;3.08;;;11.00;99.90;;;;;;2064650;28;20122;-68
2021/05/15 02:31:51;;;;;;;4.40;4.05;;;11.00;99.90;;;;;;2060517;28;20418;-68
2021/05/15 02:32:52;;;;;;;4.85;4.43;;;11.00;99.90;;;;;;2063007;28;20061;-68
2021/05/15 02:33:53;;;;;;;4.30;3.83;;;11.00;99.90;;;;;;2063639;28;20149;-68
2021/05/15 02:34:53;;;;;;;3.65;3.15;;;11.00;99.90;;;;;;2064748;28;20026;-68
2021/05/15 02:35:54;;;;;;;5.00;4.50;;;11.00;99.90;;;;;;2064131;28;20031;-68
2021/05/15 02:36:55;;;;;;;5.25;4.30;;;10.90;99.90;;;;;;2064768;28;20026;-68
2021/05/15 02:37:56;;;;;;;4.72;4.25;;;10.90;99.90;;;;;;2064621;28;20483;-67
2021/05/15 02:38:57;;;;;;;4.43;4.10;;;10.90;99.90;;;;;;2064666;28;20041;-68
2021/05/15 02:39:58;;;;;;;5.07;4.57;;;11.00;99.90;;;;;;2064509;28;20498;-68
2021/05/15 02:40:58;;;;;;;5.43;4.93;;;10.90;99.90;;;;;;2064742;28;20509;-68
2021/05/15 02:41:59;;;;;;;5.30;4.80;;;10.90;99.90;;;;;;2064094;28;20045;-68
2021/05/15 02:42:59;;;;;;;4.43;3.88;;;10.90;99.90;;;;;;2064076;28;20035;-68
2021/05/15 02:44:00;;;;;;;4.57;4.03;;;11.00;99.90;;;;;;2064369;28;20038;-68
2021/05/15 02:45:01;;;;;;;4.65;4.22;;;11.00;99.90;;;;;;2064118;28;20019;-68
2021/05/15 02:46:01;;;;;;;4.57;4.20;;;11.00;99.90;;;;;;2064388;28;20026;-68
2021/05/15 02:47:02;;;;;;;5.40;4.90;;;11.00;99.90;;;;;;2064614;28;20027;-68
2021/05/15 02:48:03;;;;;;;5.70;5.20;;;11.00;99.90;;;;;;2064504;28;20106;-68
2021/05/15 02:49:04;;;;;;;5.45;4.95;;;10.90;99.90;;;;;;2064788;28;20030;-68
2021/05/15 02:50:05;;;;;;;6.20;5.57;;;10.90;99.90;;;;;;2064313;28;20106;-67
2021/05/15 02:51:05;;;;;;;6.00;5.25;;;10.90;99.90;;;;;;2064389;28;20030;-68
2021/05/15 02:52:06;;;;;;;5.05;4.65;;;10.90;99.90;;;;;;2063974;28;20027;-68
2021/05/15 02:53:06;;;;;;;5.28;4.28;;;10.90;99.90;;;;;;2064502;28;20093;-68
2021/05/15 02:54:07;;;;;;;5.45;4.63;;;10.90;99.90;;;;;;2062952;28;20031;-68
2021/05/15 02:55:10;;;;;;;5.05;4.65;;;10.90;99.90;;;;;;2064442;28;20556;-67
2021/05/15 02:56:11;;;;;;;5.82;5.32;;;10.90;99.90;;;;;;2072093;28;20025;-67
2021/05/15 02:57:11;;;;;;;5.80;5.30;;;10.90;99.90;;;;;;2072101;28;20026;-68
2021/05/15 02:58:16;;;;;;;6.45;5.38;;;10.90;99.90;;;;;;2064528;28;20169;-68
2021/05/15 02:59:16;;;;;;;6.82;5.82;;;10.90;99.90;;;;;;2063930;28;20573;-68
2021/05/15 03:00:23;;;;;;;6.63;6.03;;;10.90;99.90;;;;;;2064572;28;20053;-68
2021/05/15 03:01:23;;;;;;;7.45;6.25;;;10.90;99.90;;;;;;2064013;28;20023;-68
2021/05/15 03:02:24;;;;;;;6.57;5.95;;;10.90;99.90;;;;;;2062016;28;20077;-68
2021/05/15 03:03:25;;;;;;;6.68;6.03;;;10.90;99.90;;;;;;2071295;28;20607;-68
2021/05/15 03:04:25;;;;;;;4.80;4.40;;;10.90;99.90;;;;;;2065146;28;20493;-67
2021/05/15 03:05:30;;;;;;;5.47;4.70;;;10.90;99.90;;;;;;2064943;28;20163;-68
2021/05/15 03:06:30;;;;;;;5.53;4.82;;;10.90;99.90;;;;;;2072515;28;20068;-68
2021/05/15 03:07:31;;;;;;;5.03;4.63;;;10.90;99.90;;;;;;2072619;28;20073;-68
2021/05/15 03:08:31;;;;;;;5.07;4.55;;;10.90;99.90;;;;;;2065108;28;20054;-68
2021/05/15 03:09:32;;;;;;;6.10;5.50;;;10.90;99.90;;;;;;2065234;28;20035;-68
2021/05/15 03:10:33;;;;;;;6.38;4.75;;;10.90;99.90;;;;;;2064902;28;20080;-68
2021/05/15 03:11:33;;;;;;;5.65;5.15;;;10.90;99.90;;;;;;2064123;28;20044;-68
2021/05/15 03:12:34;;;;;;;5.03;4.68;;;10.90;99.90;;;;;;2063882;28;20033;-68
2021/05/15 03:13:35;;;;;;;5.55;4.93;;;10.90;99.90;;;;;;2064042;28;20478;-68
2021/05/15 03:14:37;;;;;;;5.68;5.05;;;10.90;99.90;;;;;;2064619;28;20386;-67
2021/05/15 03:15:37;;;;;;;5.25;4.75;;;10.90;99.90;;;;;;2064877;28;20026;-68
2021/05/15 03:16:38;;;;;;;8.88;5.28;;;10.90;99.90;;;;;;2064742;28;20121;-67
2021/05/15 03:17:39;;;;;;;5.72;5.10;;;10.90;99.90;;;;;;2064457;28;20170;-68
2021/05/15 03:18:40;;;;;;;5.70;5.30;;;10.90;99.90;;;;;;2064735;28;20026;-68
2021/05/15 03:19:41;;;;;;;5.53;5.07;;;10.80;99.90;;;;;;2064632;28;20026;-68
2021/05/15 03:20:41;;;;;;;5.75;5.30;;;10.80;99.90;;;;;;2063391;28;20018;-68
2021/05/15 03:21:42;;;;;;;6.57;5.90;;;10.80;99.90;;;;;;2064215;28;20073;-67
2021/05/15 03:22:42;;;;;;;6.20;5.60;;;10.90;99.90;;;;;;2063993;28;20050;-68
2021/05/15 03:23:43;;;;;;;7.05;5.88;;;10.80;99.90;;;;;;2064532;28;20118;-69
2021/05/15 03:24:44;;;;;;;6.15;5.65;;;10.90;99.90;;;;;;2064729;28;20092;-68
2021/05/15 03:25:44;;;;;;;5.88;5.40;;;10.90;99.90;;;;;;2064681;28;20027;-68
2021/05/15 03:26:45;;;;;;;6.90;6.20;;;10.80;99.90;;;;;;2064136;28;20026;-68
2021/05/15 03:27:45;;;;;;;6.60;6.00;;;10.90;99.90;;;;;;2064695;28;20052;-68
2021/05/15 03:28:46;;;;;;;6.47;5.88;;;10.90;99.90;;;;;;2063809;28;20034;-67
2021/05/15 03:29:47;;;;;;;5.28;4.78;;;10.80;99.90;;;;;;2064058;28;20022;-68
2021/05/15 03:30:47;;;;;;;6.60;5.65;;;10.90;99.90;;;;;;2064631;28;20034;-67
2021/05/15 03:31:48;;;;;;;6.10;5.60;;;10.90;99.90;;;;;;2056663;28;20081;-68
2021/05/15 03:32:48;;;;;;;6.60;6.00;;;10.90;99.90;;;;;;2063874;28;20084;-68
2021/05/15 03:33:49;;;;;;;6.97;6.15;;;10.90;99.90;;;;;;2064409;28;20137;-68
2021/05/15 03:34:50;;;;;;;6.68;6.07;;;10.90;99.90;;;;;;2064377;28;20027;-68
2021/05/15 03:35:50;;;;;;;6.53;5.93;;;10.90;99.90;;;;;;2064417;28;20033;-68
2021/05/15 03:36:51;;;;;;;6.85;6.25;;;10.90;99.90;;;;;;2064474;28;20072;-68
2021/05/15 03:37:51;;;;;;;6.60;6.00;;;10.90;99.90;;;;;;2064500;28;20026;-68
2021/05/15 03:38:52;;;;;;;8.95;6.75;;;10.90;99.90;;;;;;2064339;28;20026;-68
2021/05/15 03:39:53;;;;;;;7.30;5.90;;;10.90;99.90;;;;;;2064551;28;20022;-68
2021/05/15 03:40:53;;;;;;;6.93;6.30;;;10.90;99.90;;;;;;2063878;28;20040;-68
2021/05/15 03:41:54;;;;;;;6.38;5.78;;;10.90;99.90;;;;;;2064565;28;20425;-68
2021/05/15 03:42:56;;;;;;;7.45;6.18;;;10.90;99.90;;;;;;2063292;28;20476;-68
2021/05/15 03:43:57;;;;;;;7.07;6.13;;;10.90;99.90;;;;;;2064512;28;20777;-68
2021/05/15 03:44:58;;;;;;;6.95;6.10;;;10.90;99.90;;;;;;2064249;28;20477;-68
2021/05/15 03:45:58;;;;;;;8.02;6.65;;;10.90;99.90;;;;;;2064776;28;20023;-68
2021/05/15 03:46:59;;;;;;;7.22;6.50;;;10.90;99.90;;;;;;2064153;28;20080;-68
2021/05/15 03:48:00;;;;;;;8.75;5.90;;;11.00;99.90;;;;;;2064472;28;20018;-68
2021/05/15 03:49:00;;;;;;;6.68;5.57;;;11.00;99.90;;;;;;2064348;28;20030;-68
2021/05/15 03:50:01;;;;;;;6.75;6.15;;;11.00;99.90;;;;;;2064926;28;20026;-68
2021/05/15 03:51:02;;;;;;;7.03;6.30;;;11.00;99.90;;;;;;2064096;28;20652;-68
2021/05/15 03:52:03;;;;;;;8.88;6.45;;;11.00;99.90;;;;;;2064517;28;20031;-68
2021/05/15 03:53:04;;;;;;;7.32;6.00;;;11.00;99.90;;;;;;2063846;28;20469;-68
2021/05/15 03:54:05;;;;;;;6.65;6.03;;;11.10;99.90;;;;;;2064523;28;20548;-68
2021/05/15 03:55:06;;;;;;;7.28;6.57;;;11.10;99.90;;;;;;2061402;28;20025;-68
2021/05/15 03:56:07;;;;;;;6.75;6.15;;;11.10;99.90;;;;;;2064656;28;20042;-68
2021/05/15 03:57:07;;;;;;;6.45;5.90;;;11.10;99.90;;;;;;2064435;28;20022;-68
2021/05/15 03:58:08;;;;;;;6.68;6.05;;;11.10;99.90;;;;;;2064374;28;20053;-68
2021/05/15 03:59:09;;;;;;;7.22;5.68;;;11.10;99.90;;;;;;2064110;28;20026;-68
2021/05/15 04:00:10;;;;;;;6.72;6.10;;;11.10;99.90;;;;;;2064530;28;20018;-67
2021/05/15 04:01:11;;;;;;;7.18;6.18;;;11.20;99.90;;;;;;2064389;28;20506;-68
2021/05/15 04:02:11;;;;;;;7.00;6.05;;;11.20;99.90;;;;;;2064083;28;20030;-68
2021/05/15 04:03:12;;;;;;;6.50;5.95;;;11.20;99.90;;;;;;2063781;28;20041;-68
2021/05/15 04:04:13;;;;;;;7.03;5.78;;;11.20;99.90;;;;;;2064337;28;20029;-68
2021/05/15 04:05:13;;;;;;;6.28;5.72;;;11.20;99.90;;;;;;2064353;28;20409;-68
2021/05/15 04:06:15;;;;;;;5.93;5.43;;;11.30;99.90;;;;;;2064191;28;20026;-68
2021/05/15 04:07:16;;;;;;;8.70;6.00;;;11.30;99.90;;;;;;2064311;28;20075;-68
2021/05/15 04:08:17;;;;;;;6.18;5.60;;;11.30;99.90;;;;;;2063559;28;20088;-68
2021/05/15 04:09:17;;;;;;;5.68;5.22;;;11.30;99.90;;;;;;2071112;28;20030;-68
2021/05/15 04:10:18;;;;;;;6.78;5.93;;;11.30;99.90;;;;;;2063961;28;20564;-68
2021/05/15 04:11:19;;;;;;;5.78;5.28;;;11.30;99.90;;;;;;2064107;28;20437;-68
2021/05/15 04:12:19;;;;;;;6.15;5.65;;;11.40;99.90;;;;;;2063099;28;20073;-68
2021/05/15 04:14:32;;;;;;;6.30;5.47;;;11.40;99.90;;;;;;2064012;28;20022;-68
2021/05/15 04:18:09;;;;;;;5.90;5.40;;;11.40;99.90;;;;;;2061260;28;20069;-68
2021/05/15 04:19:10;;;;;;;6.53;5.10;;;11.50;99.90;;;;;;2064258;28;20085;-68
2021/05/15 04:20:11;;;;;;;6.95;5.15;;;11.50;99.90;;;;;;2064365;28;20018;-68
2021/05/15 04:21:12;;;;;;;5.38;4.97;;;11.50;99.90;;;;;;2064266;28;20058;-68
2021/05/15 04:22:12;;;;;;;6.65;4.70;;;11.50;99.90;;;;;;2062800;28;20033;-68
2021/05/15 04:23:13;;;;;;;4.72;4.32;;;11.50;99.90;;;;;;2064210;28;20033;-68
2021/05/15 04:24:14;;;;;;;4.93;4.40;;;11.50;99.90;;;;;;2064308;28;20049;-68
2021/05/15 04:25:15;;;;;;;5.95;5.15;;;11.60;99.90;;;;;;2064397;28;20125;-68
2021/05/15 04:26:16;;;;;;;6.72;4.50;;;11.60;99.90;;;;;;2064379;28;20458;-68
2021/05/15 04:27:17;;;;;;;5.57;5.03;;;11.60;99.90;;;;;;2064223;28;20076;-68
2021/05/15 04:28:18;;;;;;;4.75;4.35;;;11.60;99.90;;;;;;2064112;28;20030;-68
2021/05/15 04:29:19;;;;;;;4.72;4.32;;;11.60;99.90;;;;;;2063247;28;20026;-68
2021/05/15 04:30:20;;;;;;;5.03;4.63;;;11.60;99.90;;;;;;2064249;28;20470;-68
2021/05/15 04:31:21;;;;;;;5.07;4.68;;;11.70;99.90;;;;;;2064537;28;20057;-68
2021/05/15 04:32:21;;;;;;;4.80;4.28;;;11.70;99.90;;;;;;2063379;28;20034;-68
2021/05/15 04:33:25;;;;;;;4.50;4.20;;;11.70;99.90;;;;;;2064221;28;20022;-68
2021/05/15 04:34:28;;;;;;;4.43;4.03;;;11.70;99.90;;;;;;2063783;28;20027;-68
2021/05/15 04:35:32;;;;;;;4.40;3.90;;;11.70;99.90;;;;;;2064198;28;20057;-68
2021/05/15 04:36:32;;;;;;;4.25;3.85;;;11.80;99.90;;;;;;2063302;28;20057;-68
2021/05/15 04:37:33;;;;;;;4.72;4.28;;;11.80;99.90;;;;;;2064144;28;20027;-68
2021/05/15 04:38:34;;;;;;;5.18;3.90;;;11.80;99.90;;;;;;2063934;28;20030;-68
2021/05/15 04:39:34;;;;;;;5.20;4.05;;;11.80;99.90;;;;;;2071928;28;20033;-68
2021/05/15 04:40:35;;;;;;;5.63;4.22;;;11.80;99.90;;;;;;2071248;28;20053;-68
2021/05/15 04:41:35;;;;;;;4.45;3.85;;;11.90;99.90;;;;;;2064259;28;20034;-68
2021/05/15 04:42:38;;;;;;;4.75;4.20;;;11.90;99.90;;;;;;2063134;28;20038;-68
2021/05/15 04:43:38;;;;;;;4.80;4.32;;;11.90;99.90;;;;;;2064080;28;20022;-67
2021/05/15 04:44:39;;;;;;;5.80;3.70;;;11.90;99.90;;;;;;2071294;28;20030;-68
2021/05/15 04:45:42;;;;;;;4.60;4.15;;;11.90;99.90;;;;;;2077238;28;20042;-68
2021/05/15 04:46:43;;;;;;;4.13;3.53;;;11.90;99.90;;;;;;2063906;28;20034;-68
2021/05/15 04:47:44;;;;;;;4.40;4.00;;;12.00;99.90;;;;;;2064152;28;20030;-68
2021/05/15 04:48:44;;;;;;;6.00;4.05;;;12.00;99.90;;;;;;2063653;28;20026;-68
2021/05/15 04:49:45;;;;;;;4.63;4.18;;;12.00;99.90;;;;;;2061991;28;20054;-68
2021/05/15 04:50:45;;;;;;;4.60;4.20;;;12.00;99.90;;;;;;2064032;28;20084;-68
2021/05/15 04:51:46;;;;;;;3.90;3.60;;;12.00;99.90;;;;;;2063102;28;20056;-68
2021/05/15 04:52:47;;;;;;;4.28;3.88;;;12.10;99.90;;;;;;2062813;28;20042;-68
2021/05/15 04:53:47;;;;;;;4.35;3.95;;;12.10;99.90;;;;;;2063833;28;20030;-68
2021/05/15 04:54:48;;;;;;;4.43;4.03;;;12.10;99.90;;;;;;2064035;28;20027;-68
2021/05/15 04:55:48;;;;;;;5.03;4.20;;;12.10;99.90;;;;;;2063110;28;20069;-68
2021/05/15 04:56:49;;;;;;;6.93;3.95;;;12.20;99.90;;;;;;2063289;28;20034;-68
2021/05/15 04:57:49;;;;;;;4.30;3.90;;;12.20;99.90;;;;;;2063868;28;20084;-68
2021/05/15 04:58:50;;;;;;;4.68;3.78;;;12.20;99.90;;;;;;2063705;28;20572;-67
2021/05/15 04:59:51;;;;;;;6.40;3.88;;;12.20;99.90;;;;;;2064116;28;20056;-68
2021/05/15 05:00:51;;;;;;;4.38;3.65;;;12.20;99.90;;;;;;2064087;28;20023;-68
2021/05/15 05:01:52;;;;;;;4.00;3.60;;;12.20;99.90;;;;;;2063624;28;20053;-68
2021/05/15 05:02:52;;;;;;;6.97;4.25;;;12.20;99.90;;;;;;2063389;28;20455;-68
2021/05/15 05:03:53;;;;;;;3.95;3.47;;;12.20;99.90;;;;;;2061057;28;20073;-68
2021/05/15 05:04:54;;;;;;;3.42;3.13;;;12.30;99.90;;;;;;2060486;28;20093;-68
2021/05/15 05:05:54;;;;;;;5.22;3.60;;;12.30;99.90;;;;;;2055758;28;20136;-68
2021/05/15 05:06:55;;;;;;;3.88;3.58;;;12.30;99.90;;;;;;2062799;28;20035;-68
2021/05/15 05:07:55;;;;;;;3.78;3.40;;;12.30;99.90;;;;;;2063918;28;20037;-68
2021/05/15 05:08:56;;;;;;;4.75;3.28;;;12.30;99.90;;;;;;2063951;28;20038;-68
2021/05/15 05:09:56;;;;;;;6.97;3.75;;;12.30;99.90;;;;;;2063833;28;20422;-68
2021/05/15 05:10:57;;;;;;;5.38;3.45;;;12.30;99.90;;;;;;2063803;28;20038;-68
2021/05/15 05:11:58;;;;;;;5.50;3.33;;;12.30;99.90;;;;;;2063836;28;20398;-68
2021/05/15 05:13:02;;;;;;;4.45;3.47;;;12.30;99.90;;;;;;2063324;28;20465;-68
2021/05/15 05:14:03;;;;;;;3.28;2.97;;;12.30;99.90;;;;;;2063988;28;20034;-68
2021/05/15 05:15:05;;;;;;;3.90;3.47;;;12.40;99.90;;;;;;2063851;28;20098;-68
2021/05/15 05:16:05;;;;;;;3.88;3.50;;;12.30;99.90;;;;;;2063629;28;20044;-68
2021/05/15 05:17:06;;;;;;;3.97;3.30;;;12.40;99.90;;;;;;2063161;28;20077;-68
2021/05/15 05:18:07;;;;;;;3.95;3.53;;;12.40;99.90;;;;;;2062835;28;20026;-68
2021/05/15 05:19:11;;;;;;;7.05;4.40;;;12.40;99.90;;;;;;2063814;28;20046;-68
2021/05/15 05:20:12;;;;;;;5.80;3.63;;;12.40;99.90;;;;;;2063278;28;20040;-68
2021/05/15 05:21:12;;;;;;;4.15;3.85;;;12.40;99.90;;;;;;2063540;28;20076;-68
2021/05/15 05:22:13;;;;;;;4.10;3.65;;;12.40;99.90;;;;;;2061854;28;20038;-68